createdAt,value
2018-11-21T00:00:15.584Z,16.43
2018-11-21T00:02:56.729Z,16.10
2018-11-21T00:05:37.791Z,16.83
2018-11-21T00:08:19.765Z,16.00
2018-11-21T00:11:01.190Z,16.47
2018-11-21T00:13:42.970Z,15.33
2018-11-21T00:16:13.054Z,14.57
2018-11-21T00:19:02.099Z,14.57
2018-11-21T00:24:51.616Z,15.07
2018-11-21T00:27:21.722Z,14.73
2018-11-21T00:33:07.198Z,15.03
2018-11-21T00:35:48.839Z,15.63
2018-11-21T00:38:30.155Z,14.77
2018-11-21T00:41:11.641Z,15.97
2018-11-21T00:43:52.786Z,15.90
2018-11-21T00:46:34.148Z,14.90
2018-11-21T00:49:16.043Z,15.10
2018-11-21T00:51:57.701Z,16.00
2018-11-21T00:54:39.105Z,15.67
2018-11-21T00:57:20.196Z,16.03
2018-11-21T01:00:02.141Z,15.07
2018-11-21T01:02:43.583Z,14.03
2018-11-21T01:05:25.396Z,15.30
2018-11-21T01:08:06.887Z,15.17
2018-11-21T01:10:48.672Z,13.83
2018-11-21T01:13:29.685Z,14.03
2018-11-21T01:16:11.474Z,14.70
2018-11-21T01:18:53.377Z,15.40
2018-11-21T01:21:34.373Z,15.53
2018-11-21T01:24:15.810Z,14.73
2018-11-21T01:26:45.880Z,14.37
2018-11-21T01:35:05.225Z,14.60
2018-11-21T01:37:54.217Z,14.20
2018-11-21T01:43:29.711Z,14.83
2018-11-21T01:45:59.810Z,14.27
2018-11-21T01:51:43.660Z,13.63
2018-11-21T01:54:24.924Z,13.70
2018-11-21T01:56:55.144Z,14.83
2018-11-21T02:02:44.742Z,12.97
2018-11-21T02:05:26.279Z,13.63
2018-11-21T02:08:07.531Z,14.13
2018-11-21T02:10:48.794Z,12.73
2018-11-21T02:13:30.107Z,14.73
2018-11-21T02:16:11.828Z,12.87
2018-11-21T02:18:41.996Z,13.70
2018-11-21T02:24:20.232Z,12.50
2018-11-21T02:30:09.905Z,14.07
2018-11-21T02:32:51.295Z,13.43
2018-11-21T02:35:32.766Z,14.30
2018-11-21T02:38:13.891Z,13.30
2018-11-21T02:40:55.367Z,13.57
2018-11-21T02:43:36.729Z,12.90
2018-11-21T02:46:18.069Z,13.63
2018-11-21T02:48:59.515Z,13.77
2018-11-21T02:51:41.051Z,13.03
2018-11-21T02:57:37.077Z,14.87
2018-11-21T03:00:18.603Z,13.47
2018-11-21T03:03:00.414Z,12.97
2018-11-21T03:05:41.558Z,13.57
2018-11-21T03:08:22.907Z,12.10
2018-11-21T03:11:04.219Z,13.90
2018-11-21T03:13:34.422Z,14.50
2018-11-21T03:16:23.363Z,12.67
2018-11-21T03:19:04.738Z,11.90
2018-11-21T03:21:45.990Z,12.87
2018-11-21T03:24:16.233Z,12.57
2018-11-21T03:27:05.231Z,11.70
2018-11-21T03:29:46.502Z,12.00
2018-11-21T03:32:28.349Z,11.93
2018-11-21T03:35:10.119Z,12.90
2018-11-21T03:37:52.024Z,12.43
2018-11-21T03:40:33.013Z,12.50
2018-11-21T03:43:14.081Z,12.40
2018-11-21T03:45:44.278Z,11.33
2018-11-21T03:51:38.888Z,11.60
2018-11-21T03:54:19.972Z,11.77
2018-11-21T03:56:50.145Z,11.47
2018-11-21T03:59:39.138Z,11.80
2018-11-21T04:02:20.190Z,11.87
2018-11-21T04:05:01.192Z,12.57
2018-11-21T04:07:31.436Z,11.83
2018-11-21T04:10:20.436Z,12.47
2018-11-21T04:13:02.351Z,11.60
2018-11-21T04:15:44.243Z,11.70
2018-11-21T04:18:25.594Z,12.27
2018-11-21T04:21:06.871Z,11.47
2018-11-21T04:23:48.483Z,13.27
2018-11-21T04:26:29.680Z,13.10
2018-11-21T04:29:11.817Z,10.80
2018-11-21T04:31:53.400Z,12.07
2018-11-21T04:34:34.889Z,10.87
2018-11-21T04:37:16.828Z,13.27
2018-11-21T04:39:46.966Z,11.63
2018-11-21T04:45:36.994Z,12.30
2018-11-21T04:48:18.126Z,12.90
2018-11-21T04:50:48.402Z,11.93
2018-11-21T04:53:37.368Z,12.07
2018-11-21T04:56:07.912Z,13.20
2018-11-21T05:01:57.204Z,12.23
2018-11-21T05:04:27.312Z,11.63
2018-11-21T05:07:16.297Z,11.87
2018-11-21T05:16:04.727Z,11.47
2018-11-21T05:18:46.380Z,11.70
2018-11-21T05:21:27.517Z,11.10
2018-11-21T05:24:08.561Z,11.87
2018-11-21T05:26:38.718Z,12.20
2018-11-21T05:29:08.779Z,12.07
2018-11-21T05:40:21.410Z,12.70
2018-11-21T05:43:02.859Z,11.27
2018-11-21T05:45:44.235Z,11.57
2018-11-21T05:48:25.371Z,10.90
2018-11-21T05:51:06.944Z,11.43
2018-11-21T05:53:48.124Z,11.97
2018-11-21T05:56:29.465Z,12.23
2018-11-21T05:59:10.717Z,11.93
2018-11-21T06:01:51.846Z,10.87
2018-11-21T06:04:32.919Z,11.53
2018-11-21T06:07:03.165Z,12.27
2018-11-21T06:12:52.551Z,13.53
2018-11-21T06:15:34.012Z,13.30
2018-11-21T06:18:15.073Z,15.27
2018-11-21T06:20:45.160Z,14.53
2018-11-21T06:26:09.440Z,14.77
2018-11-21T06:28:58.395Z,14.33
2018-11-21T06:37:29.941Z,16.07
2018-11-21T06:40:12.869Z,15.57
2018-11-21T06:42:55.263Z,15.07
2018-11-21T06:45:36.834Z,15.10
2018-11-21T06:48:18.323Z,17.10
2018-11-21T06:51:00.147Z,15.90
2018-11-21T06:53:41.637Z,14.93
2018-11-21T06:56:22.677Z,15.37
2018-11-21T06:59:04.661Z,15.87
2018-11-21T07:01:34.755Z,16.47
2018-11-21T07:07:18.845Z,15.53
2018-11-21T07:10:00.019Z,16.57
2018-11-21T07:12:41.859Z,16.40
2018-11-21T07:15:23.652Z,14.50
2018-11-21T07:18:04.747Z,15.53
2018-11-21T07:20:45.959Z,15.53
2018-11-21T07:23:16.183Z,16.30
2018-11-21T07:26:05.266Z,15.80
2018-11-21T07:28:46.965Z,17.00
2018-11-21T07:31:28.104Z,17.40
2018-11-21T07:34:09.738Z,17.97
2018-11-21T07:36:44.425Z,14.23
2018-11-21T07:39:33.395Z,16.70
2018-11-21T07:42:22.902Z,17.03
2018-11-21T07:44:53.251Z,16.23
2018-11-21T07:47:42.777Z,16.67
2018-11-21T07:50:24.569Z,16.23
2018-11-21T07:53:05.945Z,16.17
2018-11-21T07:55:47.416Z,14.83
2018-11-21T07:58:28.661Z,14.90
2018-11-21T08:01:31.784Z,15.30
2018-11-21T08:04:20.978Z,14.13
2018-11-21T08:07:09.839Z,14.13
2018-11-21T08:10:17.525Z,13.47
2018-11-21T08:13:17.301Z,11.70
2018-11-21T08:16:20.483Z,13.33
2018-11-21T08:19:20.416Z,13.47
2018-11-21T08:22:20.292Z,13.43
2018-11-21T08:25:11.885Z,12.73
2018-11-21T08:28:19.406Z,12.57
2018-11-21T08:31:00.667Z,13.87
2018-11-21T08:33:42.496Z,12.67
2018-11-21T08:36:23.802Z,13.43
2018-11-21T08:39:06.480Z,13.23
2018-11-21T08:41:47.559Z,12.73
2018-11-21T08:44:28.821Z,12.80
2018-11-21T08:47:10.445Z,12.33
2018-11-21T08:49:51.398Z,12.50
2018-11-21T08:52:32.845Z,13.37
2018-11-21T08:55:14.367Z,12.87
2018-11-21T08:57:56.251Z,12.53
2018-11-21T09:00:37.339Z,12.70
2018-11-21T09:03:18.810Z,12.30
2018-11-21T09:06:02.446Z,11.70
2018-11-21T09:08:41.235Z,13.30
2018-11-21T09:11:22.242Z,13.87
2018-11-21T09:14:03.761Z,13.07
2018-11-21T09:16:44.756Z,14.00
2018-11-21T09:19:26.127Z,13.03
2018-11-21T09:22:07.137Z,14.23
2018-11-21T09:24:48.663Z,14.53
2018-11-21T09:27:30.481Z,13.47
2018-11-21T09:30:12.390Z,13.10
2018-11-21T09:32:54.899Z,12.57
2018-11-21T09:35:36.758Z,12.53
2018-11-21T09:38:17.974Z,13.43
2018-11-21T09:40:59.133Z,12.57
2018-11-21T09:43:40.345Z,13.40
2018-11-21T09:46:10.635Z,13.10
2018-11-21T09:48:59.632Z,14.07
2018-11-21T09:51:41.457Z,13.27
2018-11-21T09:54:23.447Z,12.80
2018-11-21T09:57:04.531Z,12.53
2018-11-21T09:59:45.427Z,12.80
2018-11-21T10:02:26.864Z,13.93
2018-11-21T10:05:08.043Z,13.50
2018-11-21T10:07:49.656Z,14.03
2018-11-21T10:10:31.478Z,14.30
2018-11-21T10:13:13.323Z,16.17
2018-11-21T10:15:54.698Z,16.17
2018-11-21T10:18:37.355Z,16.20
2018-11-21T10:21:26.117Z,15.17
2018-11-21T10:26:50.315Z,15.30
2018-11-21T10:32:26.399Z,16.47
2018-11-21T10:35:07.831Z,15.83
2018-11-21T10:37:49.434Z,16.37
2018-11-21T10:40:30.735Z,16.17
2018-11-21T10:43:11.751Z,16.00
2018-11-21T10:45:52.760Z,17.13
2018-11-21T10:48:41.878Z,16.50
2018-11-21T10:51:30.946Z,15.47
2018-11-21T10:54:12.447Z,15.43
2018-11-21T10:56:54.334Z,14.37
2018-11-21T10:59:35.601Z,15.40
2018-11-21T11:02:24.703Z,18.73
2018-11-21T11:08:09.955Z,17.30
2018-11-21T11:11:13.330Z,14.30
2018-11-21T11:14:20.937Z,18.00
2018-11-21T11:20:23.147Z,18.70
2018-11-21T11:23:30.720Z,18.03
2018-11-21T11:26:30.453Z,17.00
2018-11-21T11:29:30.363Z,15.63
2018-11-21T11:32:33.627Z,14.23
2018-11-21T11:35:23.976Z,14.83
2018-11-21T11:38:26.737Z,16.43
2018-11-21T11:41:27.172Z,15.27
2018-11-21T11:44:29.943Z,16.87
2018-11-21T11:47:40.473Z,16.87
2018-11-21T11:50:29.195Z,14.77
2018-11-21T11:53:36.725Z,16.17
2018-11-21T11:56:37.025Z,16.30
2018-11-21T11:59:36.986Z,18.23
2018-11-21T12:02:25.717Z,16.03
2018-11-21T12:05:33.215Z,18.70
2018-11-21T12:11:30.289Z,14.43
2018-11-21T12:14:36.004Z,14.83
2018-11-21T12:17:36.231Z,16.00
2018-11-21T12:20:36.371Z,15.70
2018-11-21T12:23:36.736Z,14.07
2018-11-21T12:26:37.192Z,17.40
2018-11-21T12:29:36.987Z,13.70
2018-11-21T12:32:39.332Z,13.80
2018-11-21T12:35:26.893Z,15.00
2018-11-21T12:38:34.513Z,17.53
2018-11-21T12:41:21.905Z,14.53
2018-11-21T12:44:29.466Z,13.77
2018-11-21T12:47:29.535Z,19.90
2018-11-21T12:50:29.390Z,18.57
2018-11-21T12:53:29.344Z,18.43
2018-11-21T12:56:29.274Z,16.83
2018-11-21T12:59:29.055Z,18.67
2018-11-21T13:02:34.891Z,18.37
2018-11-21T13:05:24.403Z,18.83
2018-11-21T13:08:13.177Z,13.87
2018-11-21T13:11:20.887Z,15.53
2018-11-21T13:14:26.441Z,17.63
2018-11-21T13:17:26.842Z,14.73
2018-11-21T13:20:26.445Z,15.87
2018-11-21T13:23:25.532Z,14.63
2018-11-21T13:26:12.649Z,15.37
2018-11-21T13:29:20.283Z,17.67
2018-11-21T13:32:27.842Z,14.27
2018-11-21T13:35:16.721Z,17.10
2018-11-21T13:41:32.739Z,15.40
2018-11-21T13:47:37.644Z,14.23
2018-11-21T13:50:37.861Z,13.13
2018-11-21T13:53:37.508Z,17.10
2018-11-21T13:56:07.624Z,15.40
2018-11-21T13:58:56.671Z,15.30
2018-11-21T14:01:26.767Z,14.13
2018-11-21T14:06:51.633Z,14.70
2018-11-21T14:09:40.607Z,14.03
2018-11-21T14:12:22.191Z,13.50
2018-11-21T14:15:03.165Z,15.23
2018-11-21T14:17:44.567Z,13.63
2018-11-21T14:20:25.733Z,12.83
2018-11-21T14:23:07.484Z,14.57
2018-11-21T14:25:48.487Z,14.97
2018-11-21T14:28:18.719Z,14.10
2018-11-21T14:34:08.052Z,14.83
2018-11-21T14:36:49.057Z,14.90
2018-11-21T14:39:30.630Z,14.83
2018-11-21T14:42:11.699Z,14.53
2018-11-21T14:44:53.191Z,14.00
2018-11-21T14:47:34.257Z,13.80
2018-11-21T14:50:08.622Z,14.80
2018-11-21T14:52:57.652Z,13.07
2018-11-21T14:55:39.360Z,11.90
2018-11-21T14:58:20.689Z,11.83
2018-11-21T15:01:01.676Z,11.20
2018-11-21T15:03:42.676Z,12.37
2018-11-21T15:06:24.359Z,11.80
2018-11-21T15:09:06.259Z,10.70
2018-11-21T15:11:47.631Z,10.67
2018-11-21T15:14:28.992Z,9.60
2018-11-21T15:17:10.375Z,10.07
2018-11-21T15:19:51.461Z,10.20
2018-11-21T15:22:32.535Z,9.90
2018-11-21T15:25:18.328Z,9.40
2018-11-21T15:28:00.025Z,8.97
2018-11-21T15:30:41.168Z,9.33
2018-11-21T15:33:22.407Z,9.60
2018-11-21T15:36:03.460Z,8.90
2018-11-21T15:38:45.413Z,9.53
2018-11-21T15:41:26.675Z,10.43
2018-11-21T15:43:57.030Z,8.07
2018-11-21T15:49:46.282Z,9.03
2018-11-21T15:52:27.656Z,8.80
2018-11-21T15:55:09.795Z,9.37
2018-11-21T15:57:50.804Z,9.30
2018-11-21T16:00:35.019Z,8.13
2018-11-21T16:03:16.180Z,8.77
2018-11-21T16:05:58.126Z,9.17
2018-11-21T16:08:39.671Z,9.63
2018-11-21T16:11:21.117Z,7.80
2018-11-21T16:14:02.722Z,8.67
2018-11-21T16:16:44.274Z,8.47
2018-11-21T16:19:14.504Z,8.17
2018-11-21T16:22:03.643Z,8.13
2018-11-21T16:24:52.693Z,7.93
2018-11-21T16:27:34.128Z,7.67
2018-11-21T16:30:16.848Z,7.33
2018-11-21T16:32:58.595Z,7.07
2018-11-21T16:35:28.725Z,7.40
2018-11-21T16:38:17.850Z,7.33
2018-11-21T16:41:06.865Z,6.87
2018-11-21T16:43:48.433Z,7.30
2018-11-21T16:46:30.029Z,7.07
2018-11-21T16:49:11.633Z,7.30
2018-11-21T16:51:52.688Z,7.80
2018-11-21T16:54:34.485Z,7.57
2018-11-21T16:57:15.746Z,7.80
2018-11-21T16:59:57.632Z,7.37
2018-11-21T17:02:38.638Z,7.13
2018-11-21T17:05:11.107Z,7.17
2018-11-21T17:10:49.386Z,7.57
2018-11-21T17:13:38.564Z,7.97
2018-11-21T17:16:19.715Z,7.30
2018-11-21T17:19:01.549Z,7.40
2018-11-21T17:21:42.577Z,7.53
2018-11-21T17:24:24.353Z,7.07
2018-11-21T17:27:05.723Z,6.97
2018-11-21T17:29:53.849Z,6.90
2018-11-21T17:32:29.009Z,6.97
2018-11-21T17:34:59.089Z,7.30
2018-11-21T17:37:48.386Z,6.83
2018-11-21T17:40:21.510Z,6.80
2018-11-21T17:45:57.667Z,7.13
2018-11-21T17:48:39.016Z,7.40
2018-11-21T17:51:23.215Z,6.43
2018-11-21T17:54:01.495Z,7.07
2018-11-21T17:56:42.768Z,8.13
2018-11-21T17:59:23.976Z,6.50
2018-11-21T18:02:05.676Z,6.77
2018-11-21T18:04:46.929Z,6.23
2018-11-21T18:07:28.142Z,6.17
2018-11-21T18:10:09.347Z,6.77
2018-11-21T18:12:50.718Z,6.50
2018-11-21T18:15:31.810Z,6.20
2018-11-21T18:18:13.105Z,6.60
2018-11-21T18:20:55.049Z,7.83
2018-11-21T18:23:37.047Z,6.43
2018-11-21T18:26:18.753Z,6.10
2018-11-21T18:29:00.159Z,6.37
2018-11-21T18:31:41.306Z,6.00
2018-11-21T18:34:11.489Z,6.60
2018-11-21T18:37:00.428Z,7.60
2018-11-21T18:39:42.212Z,7.00
2018-11-21T18:42:23.214Z,6.60
2018-11-21T18:45:04.764Z,6.37
2018-11-21T18:47:47.028Z,6.17
2018-11-21T18:50:28.920Z,7.53
2018-11-21T18:53:10.549Z,7.37
2018-11-21T18:55:52.292Z,7.13
2018-11-21T18:58:33.634Z,7.60
2018-11-21T19:01:15.180Z,7.77
2018-11-21T19:03:56.129Z,7.77
2018-11-21T19:06:37.962Z,8.50
2018-11-21T19:09:18.973Z,11.20
2018-11-21T19:11:49.129Z,12.07
2018-11-21T19:17:38.716Z,14.97
2018-11-21T19:20:20.672Z,16.17
2018-11-21T19:23:02.040Z,14.00
2018-11-21T19:25:43.211Z,14.40
2018-11-21T19:28:25.048Z,13.23
2018-11-21T19:31:07.028Z,13.20
2018-11-21T19:33:48.029Z,11.67
2018-11-21T19:36:29.677Z,13.03
2018-11-21T19:39:12.393Z,12.43
2018-11-21T19:41:53.658Z,10.73
2018-11-21T19:44:35.676Z,12.67
2018-11-21T19:47:17.549Z,11.97
2018-11-21T19:49:59.517Z,11.07
2018-11-21T19:52:29.614Z,10.00
2018-11-21T19:55:20.636Z,11.87
2018-11-21T19:58:09.596Z,12.53
2018-11-21T20:00:58.650Z,12.90
2018-11-21T20:03:40.032Z,17.33
2018-11-21T20:06:21.123Z,18.30
2018-11-21T20:09:02.386Z,18.10
2018-11-21T20:11:44.371Z,16.40
2018-11-21T20:14:26.377Z,16.93
2018-11-21T20:17:07.389Z,16.63
2018-11-21T20:19:48.765Z,15.33
2018-11-21T20:22:29.790Z,14.90
2018-11-21T20:25:11.933Z,15.43
2018-11-21T20:27:53.068Z,13.83
2018-11-21T20:30:24.857Z,15.70
2018-11-21T20:32:55.280Z,16.90
2018-11-21T20:35:44.364Z,16.67
2018-11-21T20:38:33.416Z,13.87
2018-11-21T20:41:22.564Z,14.43
2018-11-21T20:44:11.778Z,14.03
2018-11-21T20:46:42.024Z,14.37
2018-11-21T20:52:31.163Z,15.27
2018-11-21T20:55:13.412Z,16.83
2018-11-21T20:57:44.059Z,15.87
2018-11-21T21:00:33.526Z,15.70
2018-11-21T21:03:15.324Z,14.37
2018-11-21T21:05:56.797Z,14.70
2018-11-21T21:08:38.051Z,14.33
2018-11-21T21:11:08.442Z,13.23
2018-11-21T21:13:57.548Z,12.03
2018-11-21T21:16:46.634Z,13.40
2018-11-21T21:19:27.716Z,13.50
2018-11-21T21:22:08.911Z,13.10
2018-11-21T21:24:50.408Z,12.63
2018-11-21T21:27:20.488Z,12.87
2018-11-21T21:29:50.533Z,12.63
2018-11-21T21:32:39.580Z,12.43
2018-11-21T21:38:19.133Z,12.90
2018-11-21T21:41:08.212Z,12.90
2018-11-21T21:43:49.983Z,12.57
2018-11-21T21:46:30.977Z,11.97
2018-11-21T21:49:12.426Z,12.13
2018-11-21T21:51:42.520Z,11.77
2018-11-21T21:54:12.573Z,11.03
2018-11-21T21:57:04.002Z,10.83
2018-11-21T21:59:50.525Z,11.20
2018-11-21T22:02:31.864Z,11.73
2018-11-21T22:05:01.936Z,11.63
2018-11-21T22:07:50.994Z,11.00
2018-11-21T22:13:40.177Z,10.83
2018-11-21T22:16:21.938Z,11.27
2018-11-21T22:19:03.867Z,11.77
2018-11-21T22:21:45.828Z,10.97
2018-11-21T22:24:27.168Z,11.30
2018-11-21T22:27:08.536Z,11.77
2018-11-21T22:29:49.480Z,11.10
2018-11-21T22:32:30.775Z,10.30
2018-11-21T22:35:01.126Z,9.87
2018-11-21T22:37:51.433Z,10.77
2018-11-21T22:40:20.967Z,10.93
2018-11-21T22:43:09.961Z,11.10
2018-11-21T22:45:51.894Z,10.70
2018-11-21T22:48:33.694Z,10.60
2018-11-21T22:51:15.148Z,10.00
2018-11-21T22:53:56.170Z,9.80
2018-11-21T22:56:37.676Z,9.40
2018-11-21T22:59:18.655Z,9.33
2018-11-21T23:01:59.842Z,8.93
2018-11-21T23:04:41.564Z,8.40
2018-11-21T23:07:23.203Z,8.80
2018-11-21T23:09:53.440Z,7.70
2018-11-21T23:12:42.634Z,7.83
2018-11-21T23:15:31.661Z,8.10
2018-11-21T23:18:12.791Z,7.70
2018-11-21T23:20:54.170Z,7.43
2018-11-21T23:23:35.672Z,7.20
2018-11-21T23:26:17.557Z,7.57
2018-11-21T23:28:58.636Z,7.33
2018-11-21T23:31:39.592Z,7.20
2018-11-21T23:34:21.061Z,6.77
2018-11-21T23:36:51.191Z,7.03
2018-11-21T23:39:40.180Z,7.50
2018-11-21T23:45:30.012Z,7.07
2018-11-21T23:48:11.864Z,6.73
2018-11-21T23:50:53.666Z,7.37
2018-11-21T23:53:35.025Z,6.73
2018-11-21T23:56:16.404Z,7.10
2018-11-21T23:58:57.499Z,7.23
